Ifestos 3 — SW7225 — position and weather

sailwx.info

Track history (hours):
 
Tides and Currents Weather Stations Pressure Air Temp Water Temp Dewpoint Dewpoint Depression Visibility Wind Speed Wind Dir Waves Ship Positions

Ifestos 3

Last reported at 2018-Jan-20 23:13 UTC. Time now 2018-Jan-22 04:27 UTC.
Position N 37°57' E 023°37'.

Length 30 m; draft 2.9 m.

Type: Tug. MMSI: 240612000.

Date/timePositionNaut miles runAvg speedWind from/ knotsBaromVisibWave heightAir tempDewpointWater temp
2018-Jan-20 23:13N 37°57' E 023°37'0 0.0
2018-Jan-20 15:34N 37°57' E 023°37'0 0.0
2018-Jan-20 15:30N 37°57' E 023°37'0 0.0
2018-Jan-20 15:00N 37°57' E 023°37'0 0.5
2018-Jan-20 14:31N 37°58' E 023°36'0 0.5
2018-Jan-20 14:00N 37°57' E 023°37'0 0.0
2018-Jan-20 13:30N 37°57' E 023°37'1 2.2
2018-Jan-20 13:00N 37°57' E 023°35'0 0.3
2018-Jan-20 12:30N 37°57' E 023°35'1 1.2
2018-Jan-20 12:00N 37°57' E 023°36'0 0.2
2018-Jan-20 11:30N 37°57' E 023°36'1 1.2
2018-Jan-20 11:00N 37°57' E 023°37'0 0.0
2018-Jan-20 10:31N 37°57' E 023°37'0 0.0
2018-Jan-20 10:00N 37°57' E 023°37'3 6.4
2018-Jan-20 09:31N 37°58' E 023°33'1 2.4
2018-Jan-20 09:01N 37°57' E 023°34'0 0.0
2018-Jan-20 08:31N 37°57' E 023°34'0 0.0
2018-Jan-20 08:01N 37°57' E 023°34'0 0.0
2018-Jan-20 07:30N 37°57' E 023°34'0 0.0
2018-Jan-20 07:00N 37°57' E 023°34'1 2.4
2018-Jan-20 06:30N 37°57' E 023°35'1 1.1
2018-Jan-20 06:00N 37°56' E 023°35'2 3.8
2018-Jan-20 05:31N 37°57' E 023°37'0 0.0
2018-Jan-20 05:00N 37°57' E 023°37'0 0.0
2018-Jan-20 04:30N 37°57' E 023°37'0 0.0
2018-Jan-20 04:00N 37°57' E 023°37'0 0.0
2018-Jan-20 03:30N 37°57' E 023°37'0 0.0
2018-Jan-20 03:00N 37°57' E 023°37'0 0.0
2018-Jan-20 02:31N 37°57' E 023°37'0 0.0
2018-Jan-20 02:00N 37°57' E 023°37'0 0.0
2018-Jan-20 01:30N 37°57' E 023°37'0 0.0
2018-Jan-20 01:00N 37°57' E 023°37'0 0.0
2018-Jan-20 00:31N 37°57' E 023°37'0 0.0
2018-Jan-20 00:01N 37°57' E 023°37'0 0.0
2018-Jan-19 23:31N 37°57' E 023°37'0 0.0
2018-Jan-19 23:01N 37°57' E 023°37'0 0.0
2018-Jan-19 22:30N 37°57' E 023°37'0 0.0
2018-Jan-19 22:00N 37°57' E 023°37'0 0.0
2018-Jan-19 21:30N 37°57' E 023°37'0 0.0
2018-Jan-19 21:01N 37°57' E 023°37'0 0.0
2018-Jan-19 20:30N 37°57' E 023°37'0 0.0
2018-Jan-19 20:00N 37°57' E 023°37'0 0.0
2018-Jan-19 19:30N 37°57' E 023°37'1 1.0
2018-Jan-19 19:00N 37°57' E 023°36'0 0.7
2018-Jan-19 18:31N 37°58' E 023°36'0 0.8
2018-Jan-19 18:00N 37°57' E 023°37'0 0.0
2018-Jan-19 17:31N 37°57' E 023°37'0 0.0
2018-Jan-19 17:00N 37°57' E 023°37'0 0.0
2018-Jan-19 16:30N 37°57' E 023°37'0 0.0
2018-Jan-19 16:01N 37°57' E 023°37'0 0.0
2018-Jan-19 15:29N 37°57' E 023°37'0 0.0
2018-Jan-19 15:00N 37°57' E 023°37'1 1.7
2018-Jan-19 14:30N 37°57' E 023°36'4 7.4
2018-Jan-19 14:00N 38°00' E 023°34'2 3.5
2018-Jan-19 13:30N 38°01' E 023°35'2 3.7
2018-Jan-19 13:00N 38°00' E 023°33'3 6.0
2018-Jan-19 12:31N 37°57' E 023°34'0 0.0
2018-Jan-19 12:00N 37°57' E 023°34'3 6.0
2018-Jan-19 11:31N 38°00' E 023°32'510.1
2018-Jan-19 11:01N 37°60' E 023°25'2 4.8
2018-Jan-19 10:31N 37°58' E 023°23'1 2.2
2018-Jan-19 10:00N 37°58' E 023°24'0 0.0
2018-Jan-19 09:30N 37°58' E 023°24'0 0.0
2018-Jan-19 09:01N 37°58' E 023°24'2 3.5
2018-Jan-19 08:30N 37°60' E 023°25'4 8.7
2018-Jan-19 08:00N 38°01' E 023°31'1 1.1
2018-Jan-19 07:30N 38°02' E 023°30'1 1.4
2018-Jan-19 07:01N 38°02' E 023°31'0 0.5
2018-Jan-19 06:30N 38°02' E 023°31'1 1.9
2018-Jan-19 05:59N 38°01' E 023°32'2 4.1
2018-Jan-19 05:30N 37°59' E 023°33'3 5.5
2018-Jan-19 05:00N 37°57' E 023°35'0 0.0
2018-Jan-19 04:31N 37°57' E 023°35'0 0.0
2018-Jan-19 04:01N 37°57' E 023°35'0 0.0
2018-Jan-19 03:31N 37°57' E 023°35'0 0.0
2018-Jan-19 03:00N 37°57' E 023°35'0 0.0
2018-Jan-19 02:31N 37°57' E 023°35'0 0.0
2018-Jan-19 02:01N 37°57' E 023°35'0 0.0
2018-Jan-19 01:30N 37°57' E 023°35'0 0.0
2018-Jan-19 01:01N 37°57' E 023°35'0 0.0
2018-Jan-19 00:30N 37°57' E 023°35'0 0.3
2018-Jan-19 00:00N 37°57' E 023°35'1 1.5
2018-Jan-18 23:31N 37°57' E 023°35'1 1.2
2018-Jan-18 23:00N 37°57' E 023°35'1 1.6
2018-Jan-18 22:30N 37°56' E 023°35'1 1.7
2018-Jan-18 22:00N 37°57' E 023°35'0 0.4
2018-Jan-18 21:31N 37°57' E 023°35'1 1.1
2018-Jan-18 21:00N 37°57' E 023°35'0 0.6
2018-Jan-18 20:30N 37°57' E 023°35'0 0.3
2018-Jan-18 20:01N 37°57' E 023°35'0 0.0
2018-Jan-18 19:30N 37°57' E 023°35'0 0.0
2018-Jan-18 19:01N 37°57' E 023°35'0 0.0
2018-Jan-18 18:30N 37°57' E 023°35'0 0.0
2018-Jan-18 18:00N 37°57' E 023°35'1 2.4
2018-Jan-18 17:31N 37°57' E 023°37'0 0.0
2018-Jan-18 17:01N 37°57' E 023°37'0 0.0
2018-Jan-18 16:31N 37°57' E 023°37'1 1.4
2018-Jan-18 16:00N 37°57' E 023°36'1 2.1
2018-Jan-18 15:30N 37°56' E 023°36'1 1.9
2018-Jan-18 15:00N 37°57' E 023°35'0 0.0
2018-Jan-18 14:30N 37°57' E 023°35'0 0.0
2018-Jan-18 14:01N 37°57' E 023°35'0 0.0
2018-Jan-18 13:31N 37°57' E 023°35'0 0.0
2018-Jan-18 13:01N 37°57' E 023°35'0 0.1
2018-Jan-18 12:30N 37°57' E 023°35'1 2.3
2018-Jan-18 12:00N 37°57' E 023°37'0 0.1
2018-Jan-18 11:31N 37°57' E 023°37'0 0.0
2018-Jan-18 11:00N 37°57' E 023°37'0 0.0
2018-Jan-18 10:30N 37°57' E 023°37'0 0.0
2018-Jan-18 10:00N 37°57' E 023°37'0 0.2
2018-Jan-18 09:31N 37°57' E 023°36'0 0.2
2018-Jan-18 09:01N 37°57' E 023°37'0 0.4
2018-Jan-18 08:30N 37°58' E 023°36'1 2.1
2018-Jan-18 08:01N 37°57' E 023°36'0 0.7
2018-Jan-18 07:30N 37°57' E 023°36'0 0.0
2018-Jan-18 07:00N 37°57' E 023°36'0 0.7
2018-Jan-18 06:31N 37°57' E 023°36'1 1.4
2018-Jan-18 06:00N 37°57' E 023°37'0 0.0
2018-Jan-18 05:30N 37°57' E 023°37'0 0.0
2018-Jan-18 05:00N 37°57' E 023°37'0 0.0
2018-Jan-18 04:31N 37°57' E 023°37'0 0.0
2018-Jan-18 04:00N 37°57' E 023°37'0 0.0
2018-Jan-18 03:30N 37°57' E 023°37'0 0.0
2018-Jan-18 03:00N 37°57' E 023°37'0 0.0
2018-Jan-18 02:30N 37°57' E 023°37'0 0.0
2018-Jan-18 02:01N 37°57' E 023°37'0 0.0
2018-Jan-18 01:30N 37°57' E 023°37'0 0.0
2018-Jan-18 01:00N 37°57' E 023°37'0 0.0
2018-Jan-18 00:00N 37°57' E 023°37'0 0.0
2018-Jan-17 23:57N 37°57' E 023°37'  
2018-Jan-12 14:59N 37°57' E 023°37'0 0.0
2018-Jan-12 14:30N 37°57' E 023°37'0 0.0
2018-Jan-12 14:00N 37°57' E 023°37'0 0.0
2018-Jan-12 13:30N 37°57' E 023°37'0 0.0
2018-Jan-12 13:01N 37°57' E 023°37'0 0.0
2018-Jan-12 12:30N 37°57' E 023°37'0 0.0
2018-Jan-12 12:00N 37°57' E 023°37'0 0.0
2018-Jan-12 11:30N 37°57' E 023°37'0 0.0
2018-Jan-12 11:00N 37°57' E 023°37'0 0.0
2018-Jan-12 10:31N 37°57' E 023°37'0 0.0
2018-Jan-12 10:00N 37°57' E 023°37'0 0.0
2018-Jan-12 09:30N 37°57' E 023°37'0 0.0
2018-Jan-12 09:01N 37°57' E 023°37'0 0.0
2018-Jan-12 08:30N 37°57' E 023°37'0 0.0
2018-Jan-12 08:01N 37°57' E 023°37'0 0.0
2018-Jan-12 07:30N 37°57' E 023°37'0 0.0
2018-Jan-12 07:00N 37°57' E 023°37'0 0.0
2018-Jan-12 06:31N 37°57' E 023°37'0 0.0
2018-Jan-12 06:01N 37°57' E 023°37'0 0.0
2018-Jan-12 05:30N 37°57' E 023°37'0 0.0
2018-Jan-12 05:00N 37°57' E 023°37'0 0.0
2018-Jan-12 04:30N 37°57' E 023°37'0 0.0
2018-Jan-12 04:00N 37°57' E 023°37'0 0.0
2018-Jan-12 03:30N 37°57' E 023°37'0 0.0
2018-Jan-12 03:00N 37°57' E 023°37'0 0.0
2018-Jan-12 02:30N 37°57' E 023°37'0 0.0
2018-Jan-12 02:01N 37°57' E 023°37'0 0.0
2018-Jan-12 01:30N 37°57' E 023°37'0 0.0
2018-Jan-12 01:00N 37°57' E 023°37'0 0.0
2018-Jan-12 00:30N 37°57' E 023°37'0 0.0
2018-Jan-12 00:00N 37°57' E 023°37'0 0.0
2018-Jan-11 23:30N 37°57' E 023°37'0 0.0
2018-Jan-11 23:00N 37°57' E 023°37'0 0.0
2018-Jan-11 22:30N 37°57' E 023°37'1 1.5
2018-Jan-11 22:00N 37°57' E 023°36'0 0.9
2018-Jan-11 21:30N 37°57' E 023°35'1 1.4
2018-Jan-11 21:00N 37°57' E 023°36'1 1.0
2018-Jan-11 20:31N 37°57' E 023°37'0 0.0
2018-Jan-11 20:01N 37°57' E 023°37'0 0.0
2018-Jan-11 19:29N 37°57' E 023°37'0 0.9
2018-Jan-11 19:01N 37°57' E 023°36'0 0.5
2018-Jan-11 18:30N 37°58' E 023°36'0 0.8
2018-Jan-11 18:00N 37°57' E 023°37'0 0.0
2018-Jan-11 17:31N 37°57' E 023°37'0 0.0
2018-Jan-11 17:01N 37°57' E 023°37'1 1.4
2018-Jan-11 16:31N 37°57' E 023°36'2 3.8
2018-Jan-11 16:00N 37°56' E 023°36'2 3.8
2018-Jan-11 15:31N 37°57' E 023°36'0 0.0
2018-Jan-11 15:00N 37°57' E 023°36'0 0.8
2018-Jan-11 14:30N 37°57' E 023°36'2 3.2
2018-Jan-11 14:00N 37°56' E 023°36'1 2.9
2018-Jan-11 13:30N 37°57' E 023°36'0 0.0
2018-Jan-11 13:00N 37°57' E 023°36'0 0.0
2018-Jan-11 12:30N 37°57' E 023°36'0 0.8
2018-Jan-11 12:01N 37°57' E 023°35'1 2.3
2018-Jan-11 11:30N 37°57' E 023°37'0 0.0
2018-Jan-11 11:00N 37°57' E 023°37'0 0.0
2018-Jan-11 10:31N 37°57' E 023°37'0 0.0
2018-Jan-11 10:00N 37°57' E 023°37'0 0.0
2018-Jan-11 09:30N 37°57' E 023°37'0 0.0
2018-Jan-11 09:00N 37°57' E 023°37'1 1.5
2018-Jan-11 08:31N 37°57' E 023°36'1 1.5
2018-Jan-11 08:00N 37°57' E 023°37'0 0.0
2018-Jan-11 07:30N 37°57' E 023°37'1 2.1
2018-Jan-11 07:00N 37°57' E 023°35'0 0.2
2018-Jan-11 06:30N 37°57' E 023°35'1 3.0
2018-Jan-11 06:00N 37°56' E 023°36'1 1.2
2018-Jan-11 05:30N 37°56' E 023°36'1 2.1
2018-Jan-11 05:01N 37°57' E 023°35'1 2.2
2018-Jan-11 04:31N 37°57' E 023°37'0 0.0
2018-Jan-11 04:00N 37°57' E 023°37'0 0.0
2018-Jan-11 03:31N 37°57' E 023°37'0 0.0
2018-Jan-11 03:01N 37°57' E 023°37'0 0.0
2018-Jan-11 02:31N 37°57' E 023°37'0 0.0
2018-Jan-11 02:00N 37°57' E 023°37'0 0.0
2018-Jan-11 01:30N 37°57' E 023°37'0 0.0
2018-Jan-11 01:01N 37°57' E 023°37'0 0.0
2018-Jan-11 00:30N 37°57' E 023°37'0 0.0
2018-Jan-11 00:01N 37°57' E 023°37'0 0.0
2018-Jan-10 23:31N 37°57' E 023°37'  
Track history (hours):
 
Tides and Currents Weather Stations Pressure Air Temp Water Temp Dewpoint Dewpoint Depression Visibility Wind Speed Wind Dir Waves Ship Positions

Ifestos 3

Last reported at 2018-Jan-20 23:13 UTC. Time now 2018-Jan-22 04:27 UTC.
Position N 37°57' E 023°37'.

Length 30 m; draft 2.9 m.

Type: Tug. MMSI: 240612000.

Date/timePositionNaut miles runAvg speedWind from/ knotsBaromVisibWave heightAir tempDewpointWater temp
2018-Jan-20 23:13N 37°57' E 023°37'0 0.0
2018-Jan-20 15:34N 37°57' E 023°37'0 0.0
2018-Jan-20 15:30N 37°57' E 023°37'0 0.0
2018-Jan-20 15:00N 37°57' E 023°37'0 0.5
2018-Jan-20 14:31N 37°58' E 023°36'0 0.5
2018-Jan-20 14:00N 37°57' E 023°37'0 0.0
2018-Jan-20 13:30N 37°57' E 023°37'1 2.2
2018-Jan-20 13:00N 37°57' E 023°35'0 0.3
2018-Jan-20 12:30N 37°57' E 023°35'1 1.2
2018-Jan-20 12:00N 37°57' E 023°36'0 0.2
2018-Jan-20 11:30N 37°57' E 023°36'1 1.2
2018-Jan-20 11:00N 37°57' E 023°37'0 0.0
2018-Jan-20 10:31N 37°57' E 023°37'0 0.0
2018-Jan-20 10:00N 37°57' E 023°37'3 6.4
2018-Jan-20 09:31N 37°58' E 023°33'1 2.4
2018-Jan-20 09:01N 37°57' E 023°34'0 0.0
2018-Jan-20 08:31N 37°57' E 023°34'0 0.0
2018-Jan-20 08:01N 37°57' E 023°34'0 0.0
2018-Jan-20 07:30N 37°57' E 023°34'0 0.0
2018-Jan-20 07:00N 37°57' E 023°34'1 2.4
2018-Jan-20 06:30N 37°57' E 023°35'1 1.1
2018-Jan-20 06:00N 37°56' E 023°35'2 3.8
2018-Jan-20 05:31N 37°57' E 023°37'0 0.0
2018-Jan-20 05:00N 37°57' E 023°37'0 0.0
2018-Jan-20 04:30N 37°57' E 023°37'0 0.0
2018-Jan-20 04:00N 37°57' E 023°37'0 0.0
2018-Jan-20 03:30N 37°57' E 023°37'0 0.0
2018-Jan-20 03:00N 37°57' E 023°37'0 0.0
2018-Jan-20 02:31N 37°57' E 023°37'0 0.0
2018-Jan-20 02:00N 37°57' E 023°37'0 0.0
2018-Jan-20 01:30N 37°57' E 023°37'0 0.0
2018-Jan-20 01:00N 37°57' E 023°37'0 0.0
2018-Jan-20 00:31N 37°57' E 023°37'0 0.0
2018-Jan-20 00:01N 37°57' E 023°37'0 0.0
2018-Jan-19 23:31N 37°57' E 023°37'0 0.0
2018-Jan-19 23:01N 37°57' E 023°37'0 0.0
2018-Jan-19 22:30N 37°57' E 023°37'0 0.0
2018-Jan-19 22:00N 37°57' E 023°37'0 0.0
2018-Jan-19 21:30N 37°57' E 023°37'0 0.0
2018-Jan-19 21:01N 37°57' E 023°37'0 0.0
2018-Jan-19 20:30N 37°57' E 023°37'0 0.0
2018-Jan-19 20:00N 37°57' E 023°37'0 0.0
2018-Jan-19 19:30N 37°57' E 023°37'1 1.0
2018-Jan-19 19:00N 37°57' E 023°36'0 0.7
2018-Jan-19 18:31N 37°58' E 023°36'0 0.8
2018-Jan-19 18:00N 37°57' E 023°37'0 0.0
2018-Jan-19 17:31N 37°57' E 023°37'0 0.0
2018-Jan-19 17:00N 37°57' E 023°37'0 0.0
2018-Jan-19 16:30N 37°57' E 023°37'0 0.0
2018-Jan-19 16:01N 37°57' E 023°37'0 0.0
2018-Jan-19 15:29N 37°57' E 023°37'0 0.0
2018-Jan-19 15:00N 37°57' E 023°37'1 1.7
2018-Jan-19 14:30N 37°57' E 023°36'4 7.4
2018-Jan-19 14:00N 38°00' E 023°34'2 3.5
2018-Jan-19 13:30N 38°01' E 023°35'2 3.7
2018-Jan-19 13:00N 38°00' E 023°33'3 6.0
2018-Jan-19 12:31N 37°57' E 023°34'0 0.0
2018-Jan-19 12:00N 37°57' E 023°34'3 6.0
2018-Jan-19 11:31N 38°00' E 023°32'510.1
2018-Jan-19 11:01N 37°60' E 023°25'2 4.8
2018-Jan-19 10:31N 37°58' E 023°23'1 2.2
2018-Jan-19 10:00N 37°58' E 023°24'0 0.0
2018-Jan-19 09:30N 37°58' E 023°24'0 0.0
2018-Jan-19 09:01N 37°58' E 023°24'2 3.5
2018-Jan-19 08:30N 37°60' E 023°25'4 8.7
2018-Jan-19 08:00N 38°01' E 023°31'1 1.1
2018-Jan-19 07:30N 38°02' E 023°30'1 1.4
2018-Jan-19 07:01N 38°02' E 023°31'0 0.5
2018-Jan-19 06:30N 38°02' E 023°31'1 1.9
2018-Jan-19 05:59N 38°01' E 023°32'2 4.1
2018-Jan-19 05:30N 37°59' E 023°33'3 5.5
2018-Jan-19 05:00N 37°57' E 023°35'0 0.0
2018-Jan-19 04:31N 37°57' E 023°35'0 0.0
2018-Jan-19 04:01N 37°57' E 023°35'0 0.0
2018-Jan-19 03:31N 37°57' E 023°35'0 0.0
2018-Jan-19 03:00N 37°57' E 023°35'0 0.0
2018-Jan-19 02:31N 37°57' E 023°35'0 0.0
2018-Jan-19 02:01N 37°57' E 023°35'0 0.0
2018-Jan-19 01:30N 37°57' E 023°35'0 0.0
2018-Jan-19 01:01N 37°57' E 023°35'0 0.0
2018-Jan-19 00:30N 37°57' E 023°35'0 0.3
2018-Jan-19 00:00N 37°57' E 023°35'1 1.5
2018-Jan-18 23:31N 37°57' E 023°35'1 1.2
2018-Jan-18 23:00N 37°57' E 023°35'1 1.6
2018-Jan-18 22:30N 37°56' E 023°35'1 1.7
2018-Jan-18 22:00N 37°57' E 023°35'0 0.4
2018-Jan-18 21:31N 37°57' E 023°35'1 1.1
2018-Jan-18 21:00N 37°57' E 023°35'0 0.6
2018-Jan-18 20:30N 37°57' E 023°35'0 0.3
2018-Jan-18 20:01N 37°57' E 023°35'0 0.0
2018-Jan-18 19:30N 37°57' E 023°35'0 0.0
2018-Jan-18 19:01N 37°57' E 023°35'0 0.0
2018-Jan-18 18:30N 37°57' E 023°35'0 0.0
2018-Jan-18 18:00N 37°57' E 023°35'1 2.4
2018-Jan-18 17:31N 37°57' E 023°37'0 0.0
2018-Jan-18 17:01N 37°57' E 023°37'0 0.0
2018-Jan-18 16:31N 37°57' E 023°37'1 1.4
2018-Jan-18 16:00N 37°57' E 023°36'1 2.1
2018-Jan-18 15:30N 37°56' E 023°36'1 1.9
2018-Jan-18 15:00N 37°57' E 023°35'0 0.0
2018-Jan-18 14:30N 37°57' E 023°35'0 0.0
2018-Jan-18 14:01N 37°57' E 023°35'0 0.0
2018-Jan-18 13:31N 37°57' E 023°35'0 0.0
2018-Jan-18 13:01N 37°57' E 023°35'0 0.1
2018-Jan-18 12:30N 37°57' E 023°35'1 2.3
2018-Jan-18 12:00N 37°57' E 023°37'0 0.1
2018-Jan-18 11:31N 37°57' E 023°37'0 0.0
2018-Jan-18 11:00N 37°57' E 023°37'0 0.0
2018-Jan-18 10:30N 37°57' E 023°37'0 0.0
2018-Jan-18 10:00N 37°57' E 023°37'0 0.2
2018-Jan-18 09:31N 37°57' E 023°36'0 0.2
2018-Jan-18 09:01N 37°57' E 023°37'0 0.4
2018-Jan-18 08:30N 37°58' E 023°36'1 2.1
2018-Jan-18 08:01N 37°57' E 023°36'0 0.7
2018-Jan-18 07:30N 37°57' E 023°36'0 0.0
2018-Jan-18 07:00N 37°57' E 023°36'0 0.7
2018-Jan-18 06:31N 37°57' E 023°36'1 1.4
2018-Jan-18 06:00N 37°57' E 023°37'0 0.0
2018-Jan-18 05:30N 37°57' E 023°37'0 0.0
2018-Jan-18 05:00N 37°57' E 023°37'0 0.0
2018-Jan-18 04:31N 37°57' E 023°37'0 0.0
2018-Jan-18 04:00N 37°57' E 023°37'0 0.0
2018-Jan-18 03:30N 37°57' E 023°37'0 0.0
2018-Jan-18 03:00N 37°57' E 023°37'0 0.0
2018-Jan-18 02:30N 37°57' E 023°37'0 0.0
2018-Jan-18 02:01N 37°57' E 023°37'0 0.0
2018-Jan-18 01:30N 37°57' E 023°37'0 0.0
2018-Jan-18 01:00N 37°57' E 023°37'0 0.0
2018-Jan-18 00:00N 37°57' E 023°37'0 0.0
2018-Jan-17 23:57N 37°57' E 023°37'  
2018-Jan-12 14:59N 37°57' E 023°37'0 0.0
2018-Jan-12 14:30N 37°57' E 023°37'0 0.0
2018-Jan-12 14:00N 37°57' E 023°37'0 0.0
2018-Jan-12 13:30N 37°57' E 023°37'0 0.0
2018-Jan-12 13:01N 37°57' E 023°37'0 0.0
2018-Jan-12 12:30N 37°57' E 023°37'0 0.0
2018-Jan-12 12:00N 37°57' E 023°37'0 0.0
2018-Jan-12 11:30N 37°57' E 023°37'0 0.0
2018-Jan-12 11:00N 37°57' E 023°37'0 0.0
2018-Jan-12 10:31N 37°57' E 023°37'0 0.0
2018-Jan-12 10:00N 37°57' E 023°37'0 0.0
2018-Jan-12 09:30N 37°57' E 023°37'0 0.0
2018-Jan-12 09:01N 37°57' E 023°37'0 0.0
2018-Jan-12 08:30N 37°57' E 023°37'0 0.0
2018-Jan-12 08:01N 37°57' E 023°37'0 0.0
2018-Jan-12 07:30N 37°57' E 023°37'0 0.0
2018-Jan-12 07:00N 37°57' E 023°37'0 0.0
2018-Jan-12 06:31N 37°57' E 023°37'0 0.0
2018-Jan-12 06:01N 37°57' E 023°37'0 0.0
2018-Jan-12 05:30N 37°57' E 023°37'0 0.0
2018-Jan-12 05:00N 37°57' E 023°37'0 0.0
2018-Jan-12 04:30N 37°57' E 023°37'0 0.0
2018-Jan-12 04:00N 37°57' E 023°37'0 0.0
2018-Jan-12 03:30N 37°57' E 023°37'0 0.0
2018-Jan-12 03:00N 37°57' E 023°37'0 0.0
2018-Jan-12 02:30N 37°57' E 023°37'0 0.0
2018-Jan-12 02:01N 37°57' E 023°37'0 0.0
2018-Jan-12 01:30N 37°57' E 023°37'0 0.0
2018-Jan-12 01:00N 37°57' E 023°37'0 0.0
2018-Jan-12 00:30N 37°57' E 023°37'0 0.0
2018-Jan-12 00:00N 37°57' E 023°37'0 0.0
2018-Jan-11 23:30N 37°57' E 023°37'0 0.0
2018-Jan-11 23:00N 37°57' E 023°37'0 0.0
2018-Jan-11 22:30N 37°57' E 023°37'1 1.5
2018-Jan-11 22:00N 37°57' E 023°36'0 0.9
2018-Jan-11 21:30N 37°57' E 023°35'1 1.4
2018-Jan-11 21:00N 37°57' E 023°36'1 1.0
2018-Jan-11 20:31N 37°57' E 023°37'0 0.0
2018-Jan-11 20:01N 37°57' E 023°37'0 0.0
2018-Jan-11 19:29N 37°57' E 023°37'0 0.9
2018-Jan-11 19:01N 37°57' E 023°36'0 0.5
2018-Jan-11 18:30N 37°58' E 023°36'0 0.8
2018-Jan-11 18:00N 37°57' E 023°37'0 0.0
2018-Jan-11 17:31N 37°57' E 023°37'0 0.0
2018-Jan-11 17:01N 37°57' E 023°37'1 1.4
2018-Jan-11 16:31N 37°57' E 023°36'2 3.8
2018-Jan-11 16:00N 37°56' E 023°36'2 3.8
2018-Jan-11 15:31N 37°57' E 023°36'0 0.0
2018-Jan-11 15:00N 37°57' E 023°36'0 0.8
2018-Jan-11 14:30N 37°57' E 023°36'2 3.2
2018-Jan-11 14:00N 37°56' E 023°36'1 2.9
2018-Jan-11 13:30N 37°57' E 023°36'0 0.0
2018-Jan-11 13:00N 37°57' E 023°36'0 0.0
2018-Jan-11 12:30N 37°57' E 023°36'0 0.8
2018-Jan-11 12:01N 37°57' E 023°35'1 2.3
2018-Jan-11 11:30N 37°57' E 023°37'0 0.0
2018-Jan-11 11:00N 37°57' E 023°37'0 0.0
2018-Jan-11 10:31N 37°57' E 023°37'0 0.0
2018-Jan-11 10:00N 37°57' E 023°37'0 0.0
2018-Jan-11 09:30N 37°57' E 023°37'0 0.0
2018-Jan-11 09:00N 37°57' E 023°37'1 1.5
2018-Jan-11 08:31N 37°57' E 023°36'1 1.5
2018-Jan-11 08:00N 37°57' E 023°37'0 0.0
2018-Jan-11 07:30N 37°57' E 023°37'1 2.1
2018-Jan-11 07:00N 37°57' E 023°35'0 0.2
2018-Jan-11 06:30N 37°57' E 023°35'1 3.0
2018-Jan-11 06:00N 37°56' E 023°36'1 1.2
2018-Jan-11 05:30N 37°56' E 023°36'1 2.1
2018-Jan-11 05:01N 37°57' E 023°35'1 2.2
2018-Jan-11 04:31N 37°57' E 023°37'0 0.0
2018-Jan-11 04:00N 37°57' E 023°37'0 0.0
2018-Jan-11 03:31N 37°57' E 023°37'0 0.0
2018-Jan-11 03:01N 37°57' E 023°37'0 0.0
2018-Jan-11 02:31N 37°57' E 023°37'0 0.0
2018-Jan-11 02:00N 37°57' E 023°37'0 0.0
2018-Jan-11 01:30N 37°57' E 023°37'0 0.0
2018-Jan-11 01:01N 37°57' E 023°37'0 0.0
2018-Jan-11 00:30N 37°57' E 023°37'0 0.0
2018-Jan-11 00:01N 37°57' E 023°37'0 0.0
2018-Jan-10 23:31N 37°57' E 023°37'  

Dump ship's entire track history